Time;durP1;ratioP1;P1;durP2;ratioP2;P2;SDS_P1;SDS_P2;PMS_P1;PMS_P2;Temp;Humidity;BMP_temperature;BMP_pressure;BME280_temperature;BME280_humidity;BME280_pressure;Samples;Min_cycle;Max_cycle;Signal;HPM_P1;HPM_P2
2022/01/25 00:10:42;;;;;;;;;;;6.20;99.90;;;4.10;100.00;102347.69;4963964;28;19985;-82
2022/01/25 00:24:32;;;;;;;;;;;6.20;99.90;;;4.14;100.00;102348.38;4969926;28;19929;-82
2022/01/25 00:30:10;;;;;;;;;;;6.40;99.90;;;4.07;100.00;102361.38;4951050;28;19932;-82
2022/01/25 00:32:37;;;;;;;;;;;6.20;99.90;;;4.09;100.00;102356.75;4970836;28;19937;-82
2022/01/25 00:35:06;;;;;;;;;;;6.20;99.90;;;4.18;100.00;102363.38;4969516;28;19926;-82
2022/01/25 00:37:33;;;;;;;;;;;6.20;99.90;;;4.15;100.00;102360.88;4970218;28;19930;-82
2022/01/25 00:40:01;;;;;;;;;;;6.20;99.90;;;4.18;100.00;102355.28;4970510;28;19968;-82
2022/01/25 00:42:28;;;;;;;;;;;6.20;99.90;;;4.13;100.00;102357.41;4964685;28;19926;-83
2022/01/25 00:44:55;;;;;;;;;;;6.10;99.90;;;4.18;100.00;102355.28;4963992;28;19961;-83
2022/01/25 00:47:25;;;;;;;;;;;6.10;99.90;;;4.17;100.00;102356.25;4961032;28;19930;-82
2022/01/25 00:49:53;;;;;;;;;;;6.10;99.90;;;4.16;100.00;102353.66;4949778;28;19928;-83
2022/01/25 00:53:53;;;;;;;;;;;6.10;99.90;;;4.16;100.00;102351.81;4971086;28;20029;-83
2022/01/25 00:55:12;;;;;;;;;;;6.20;99.90;;;4.17;100.00;102358.97;4969063;28;19929;-83
2022/01/25 00:57:39;;;;;;;;;;;6.10;99.90;;;4.19;100.00;102350.75;4970846;28;19926;-83
2022/01/25 01:00:09;;;;;;;;;;;6.10;99.90;;;4.22;100.00;102348.72;4963950;28;20018;-83
2022/01/25 01:02:36;;;;;;;;;;;6.10;99.90;;;4.21;100.00;102355.09;4967160;28;19922;-83
2022/01/25 01:05:03;;;;;;;;;;;6.10;99.90;;;4.22;100.00;102354.13;4959560;28;19962;-83
2022/01/25 01:07:32;;;;;;;;;;;6.10;99.90;;;4.23;100.00;102353.16;4952452;28;19922;-83
2022/01/25 01:10:00;;;;;;;;;;;6.10;99.90;;;4.22;100.00;102351.44;4968790;28;19965;-83
2022/01/25 01:12:55;;;;;;;;;;;6.10;99.90;;;4.18;100.00;102352.59;4958859;28;20395;-83
2022/01/25 01:15:26;;;;;;;;;;;6.20;99.90;;;4.24;100.00;102352.19;4958782;28;20482;-83
2022/01/25 01:29:14;;;;;;;;;;;6.10;99.90;;;4.20;100.00;102345.28;4969562;28;19977;-82
2022/01/25 01:32:02;;;;;;;;;;;6.00;99.90;;;4.24;100.00;102337.84;4967058;28;20017;-83
2022/01/25 01:35:04;;;;;;;;;;;6.00;99.90;;;4.26;100.00;102333.22;4963651;28;20457;-83
2022/01/25 01:38:02;;;;;;;;;;;6.00;99.90;;;4.25;100.00;102340.47;4971307;28;20747;-83
2022/01/25 01:43:32;;;;;;;;;;;6.00;99.90;;;4.24;100.00;102327.94;4945474;28;19985;-83
2022/01/25 01:46:16;;;;;;;;;;;6.10;99.90;;;4.22;100.00;102324.47;4955856;28;19933;-83
2022/01/25 01:48:51;;;;;;;;;;;6.00;99.90;;;4.17;100.00;102326.63;4954549;28;19926;-83
2022/01/25 01:51:25;;;;;;;;;;;6.00;99.90;;;4.13;100.00;102325.06;4968534;28;20467;-83
2022/01/25 01:53:53;;;;;;;;;;;6.00;99.90;;;4.13;100.00;102327.75;4966300;28;19949;-82
2022/01/25 01:56:22;;;;;;;;;;;6.10;99.90;;;4.18;100.00;102328.34;4968653;28;19930;-83
2022/01/25 01:58:51;;;;;;;;;;;6.10;99.90;;;4.11;100.00;102333.25;4954545;28;19977;-83
2022/01/25 02:01:18;;;;;;;;;;;6.10;99.90;;;4.12;100.00;102331.44;4954207;28;19958;-83
2022/01/25 02:03:45;;;;;;;;;;;6.10;99.90;;;3.98;100.00;102328.72;4960328;28;19980;-83
2022/01/25 02:06:13;;;;;;;;;;;6.10;99.90;;;4.03;100.00;102329.31;4971891;28;19922;-83
2022/01/25 02:08:40;;;;;;;;;;;6.00;99.90;;;4.10;100.00;102327.97;4964434;28;19992;-83
2022/01/25 02:11:07;;;;;;;;;;;6.10;99.90;;;4.17;100.00;102342.78;4954459;28;19922;-83
2022/01/25 02:13:37;;;;;;;;;;;6.00;99.90;;;4.20;100.00;102331.78;4964927;28;19930;-83
2022/01/25 02:16:07;;;;;;;;;;;6.00;99.90;;;4.17;100.00;102342.78;4954369;28;20482;-83
2022/01/25 02:24:06;;;;;;;;;;;6.10;99.90;;;3.97;100.00;102329.72;4961813;28;19926;-82
2022/01/25 02:26:33;;;;;;;;;;;6.00;99.90;;;3.97;100.00;102324.31;4973132;28;19961;-83
2022/01/25 02:29:00;;;;;;;;;;;6.10;99.90;;;3.98;100.00;102320.66;4972563;28;20096;-83
2022/01/25 02:31:27;;;;;;;;;;;6.00;99.90;;;4.04;100.00;102320.28;4972158;28;19928;-83
2022/01/25 02:33:54;;;;;;;;;;;6.00;99.90;;;4.10;100.00;102309.09;4973357;28;19926;-83
2022/01/25 02:36:27;;;;;;;;;;;6.10;99.90;;;4.16;100.00;102310.53;4973299;28;20036;-83
2022/01/25 02:38:54;;;;;;;;;;;5.90;99.90;;;4.11;100.00;102306.31;4959316;28;20004;-83
2022/01/25 02:41:21;;;;;;;;;;;5.90;99.90;;;4.14;100.00;102305.25;4966372;28;20033;-83
2022/01/25 02:43:49;;;;;;;;;;;6.00;99.90;;;4.13;100.00;102314.28;4961978;28;19922;-83
2022/01/25 02:49:09;;;;;;;;;;;6.00;99.90;;;3.98;100.00;102321.53;4958546;28;20013;-83
2022/01/25 02:51:39;;;;;;;;;;;6.00;99.90;;;3.92;100.00;102317.41;4957813;28;20374;-83
2022/01/25 02:54:07;;;;;;;;;;;6.00;99.90;;;3.85;100.00;102316.06;4971268;28;19931;-82
2022/01/25 02:56:36;;;;;;;;;;;6.00;99.90;;;3.88;100.00;102315.88;4964436;28;19927;-82
2022/01/25 02:59:05;;;;;;;;;;;6.00;99.90;;;3.96;100.00;102318.09;4953509;28;19922;-83
2022/01/25 03:01:32;;;;;;;;;;;6.00;99.90;;;4.00;100.00;102314.22;4957066;28;19925;-83
2022/01/25 03:03:59;;;;;;;;;;;5.90;99.90;;;3.93;100.00;102307.47;4971222;28;20064;-83
2022/01/25 03:06:27;;;;;;;;;;;6.00;99.90;;;3.83;100.00;102307.19;4971991;28;20032;-83
2022/01/25 03:08:55;;;;;;;;;;;6.00;99.90;;;3.90;100.00;102304.97;4968298;28;20237;-83
2022/01/25 03:11:24;;;;;;;;;;;6.00;99.90;;;3.88;100.00;102302.41;4964671;28;19937;-83
2022/01/25 03:13:53;;;;;;;;;;;6.00;99.90;;;3.76;100.00;102300.47;4963664;28;19934;-83
2022/01/25 03:16:29;;;;;;;;;;;6.00;99.90;;;3.85;100.00;102305.28;4967827;28;19926;-83
2022/01/25 03:19:00;;;;;;;;;;;6.00;99.90;;;3.99;100.00;102306.22;4953200;28;20714;-83
2022/01/25 03:21:36;;;;;;;;;;;6.00;99.90;;;3.99;100.00;102308.94;4961226;28;19933;-82
2022/01/25 03:24:07;;;;;;;;;;;5.90;99.90;;;3.96;100.00;102306.41;4964435;28;19926;-83
2022/01/25 03:26:35;;;;;;;;;;;5.90;99.90;;;4.02;100.00;102301.53;4953455;28;19971;-83
2022/01/25 03:29:04;;;;;;;;;;;5.90;99.90;;;4.07;100.00;102303.91;4968591;28;19996;-82
2022/01/25 03:31:31;;;;;;;;;;;5.90;99.90;;;4.07;100.00;102306.59;4963305;28;19930;-83
2022/01/25 03:33:59;;;;;;;;;;;6.00;99.90;;;4.03;100.00;102303.22;4971256;28;19932;-83
2022/01/25 03:36:26;;;;;;;;;;;6.00;99.90;;;4.03;100.00;102303.22;4969806;28;19926;-83
2022/01/25 03:38:53;;;;;;;;;;;6.00;99.90;;;4.00;100.00;102307.94;4962600;28;20466;-83
2022/01/25 03:41:23;;;;;;;;;;;6.00;99.90;;;4.03;100.00;102307.75;4955479;28;19926;-83
2022/01/25 03:43:54;;;;;;;;;;;6.00;99.90;;;3.97;100.00;102294.69;4971408;28;19965;-83
2022/01/25 03:46:27;;;;;;;;;;;6.00;99.90;;;4.03;100.00;102297.00;4963254;28;20418;-83
2022/01/25 03:51:39;;;;;;;;;;;6.00;99.90;;;4.01;100.00;102288.13;4972171;28;20299;-83
2022/01/25 03:54:07;;;;;;;;;;;5.90;99.90;;;3.94;100.00;102285.00;4958376;28;19926;-84
2022/01/25 03:56:35;;;;;;;;;;;5.90;99.90;;;3.92;100.00;102282.38;4956397;28;19948;-83
2022/01/25 03:59:04;;;;;;;;;;;5.90;99.90;;;3.94;100.00;102294.88;4971462;28;20028;-83
2022/01/25 04:01:32;;;;;;;;;;;5.90;99.90;;;3.91;100.00;102293.25;4970176;28;20474;-83
2022/01/25 04:04:02;;;;;;;;;;;5.90;99.90;;;3.91;100.00;102283.34;4965548;28;19922;-83
2022/01/25 04:06:32;;;;;;;;;;;5.90;99.90;;;3.94;100.00;102286.78;4951000;29;20367;-83
2022/01/25 04:08:59;;;;;;;;;;;5.90;99.90;;;3.97;100.00;102281.22;4962897;28;19922;-83
2022/01/25 04:11:27;;;;;;;;;;;5.90;99.90;;;3.87;100.00;102291.72;4952394;28;20057;-83
2022/01/25 04:13:57;;;;;;;;;;;5.90;99.90;;;3.91;100.00;102287.88;4952315;28;19922;-83
2022/01/25 04:16:28;;;;;;;;;;;5.90;99.90;;;3.90;100.00;102291.50;4956183;28;20310;-83
2022/01/25 04:19:07;;;;;;;;;;;5.90;99.90;;;3.94;100.00;102278.72;4969522;28;19926;-82
2022/01/25 04:24:40;;;;;;;;;;;5.90;99.90;;;3.87;100.00;102279.13;4970332;28;19977;-83
2022/01/25 04:24:56;;;;;;;;;;;5.90;99.90;;;3.87;100.00;102273.72;4971142;28;19937;-83
2022/01/25 04:27:23;;;;;;;;;;;5.90;99.90;;;3.98;100.00;102277.53;4958688;28;19934;-83
2022/01/25 04:29:53;;;;;;;;;;;5.90;99.90;;;3.76;100.00;102284.31;4954610;28;19976;-83
2022/01/25 04:32:30;;;;;;;;;;;5.80;99.90;;;3.74;100.00;102275.47;4971303;28;20477;-83
2022/01/25 04:35:09;;;;;;;;;;;5.80;99.90;;;3.76;100.00;102275.38;4969178;28;20016;-83
2022/01/25 04:51:42;;;;;;;;;;;5.80;99.90;;;3.74;100.00;102270.06;4969306;28;19955;-83
2022/01/25 04:54:16;;;;;;;;;;;5.80;99.90;;;3.75;100.00;102277.22;4966426;28;20016;-83
2022/01/25 04:56:50;;;;;;;;;;;5.80;99.90;;;3.75;100.00;102273.63;4963306;28;19976;-83
2022/01/25 04:59:24;;;;;;;;;;;5.80;99.90;;;3.81;100.00;102281.31;4962981;28;19926;-82
2022/01/25 05:01:59;;;;;;;;;;;5.80;99.90;;;3.80;100.00;102279.59;4967942;28;19934;-82
2022/01/25 05:04:30;;;;;;;;;;;5.80;99.90;;;3.66;100.00;102284.03;4951773;28;19926;-83
2022/01/25 05:07:06;;;;;;;;;;;5.80;99.90;;;3.70;100.00;102282.88;4964021;28;19926;-86
2022/01/25 05:09:35;;;;;;;;;;;5.80;99.90;;;3.75;100.00;102282.59;4962243;28;19961;-93
2022/01/25 05:12:04;;;;;;;;;;;5.70;99.90;;;3.79;100.00;102284.13;4975112;28;19927;-90
2022/01/25 05:14:34;;;;;;;;;;;5.70;99.90;;;3.75;100.00;102287.97;4966804;28;19930;-89
2022/01/25 05:17:05;;;;;;;;;;;5.70;99.90;;;3.72;100.00;102286.31;4969348;28;19926;-92
2022/01/25 05:22:24;;;;;;;;;;;5.70;99.90;;;3.58;100.00;102277.38;4983109;28;19972;-83
2022/01/25 05:24:52;;;;;;;;;;;5.70;99.90;;;3.45;100.00;102271.91;4966492;28;19926;-83
2022/01/25 05:27:22;;;;;;;;;;;5.70;99.90;;;3.59;100.00;102282.66;4956113;28;20013;-85
2022/01/25 05:29:50;;;;;;;;;;;5.70;99.90;;;3.55;100.00;102291.03;4951047;28;20100;-84
2022/01/25 05:32:18;;;;;;;;;;;5.70;99.90;;;3.55;100.00;102282.97;4951235;28;19933;-83
2022/01/25 05:34:45;;;;;;;;;;;5.70;99.90;;;3.61;100.00;102279.88;4953967;28;20029;-83
2022/01/25 05:37:12;;;;;;;;;;;5.70;99.90;;;3.57;100.00;102281.03;4970559;28;20472;-84
2022/01/25 05:39:39;;;;;;;;;;;5.70;99.90;;;3.56;100.00;102287.38;4957143;28;19922;-84
2022/01/25 05:42:29;;;;;;;;;;;5.80;99.90;;;3.61;100.00;102271.81;4950215;28;20371;-84
2022/01/25 05:45:12;;;;;;;;;;;5.70;99.90;;;3.56;100.00;102264.03;4966044;28;19922;-85
2022/01/25 05:47:43;;;;;;;;;;;5.70;99.90;;;3.59;100.00;102265.66;4952147;28;19926;-84
2022/01/25 05:50:12;;;;;;;;;;;5.60;99.90;;;3.56;100.00;102260.44;4949626;28;20013;-84
2022/01/25 05:52:39;;;;;;;;;;;5.70;99.90;;;3.50;100.00;102270.66;4951045;28;19973;-85
2022/01/25 05:55:08;;;;;;;;;;;5.70;99.90;;;3.55;100.00;102266.81;4969476;28;19997;-86
2022/01/25 05:57:39;;;;;;;;;;;5.70;99.90;;;3.62;100.00;102266.34;4960736;28;19933;-86
2022/01/25 06:00:08;;;;;;;;;;;5.60;99.90;;;3.63;100.00;102272.56;4955677;28;19926;-84
2022/01/25 06:02:36;;;;;;;;;;;5.60;99.90;;;3.61;100.00;102269.13;4965796;28;20485;-86
2022/01/25 06:05:06;;;;;;;;;;;5.60;99.90;;;3.45;100.00;102270.06;4963894;28;19926;-87
2022/01/25 06:07:34;;;;;;;;;;;5.60;99.90;;;3.30;100.00;102274.56;4969531;28;19932;-87
2022/01/25 06:10:02;;;;;;;;;;;5.70;99.90;;;3.42;100.00;102278.31;4952680;28;20340;-87
2022/01/25 06:12:31;;;;;;;;;;;5.60;99.90;;;3.46;100.00;102270.94;4955952;28;20390;-84
2022/01/25 06:14:58;;;;;;;;;;;5.60;99.90;;;3.49;100.00;102271.63;4961506;28;20022;-85
2022/01/25 06:17:25;;;;;;;;;;;5.60;99.90;;;3.56;100.00;102272.13;4962009;28;20330;-85
2022/01/25 06:19:52;;;;;;;;;;;5.60;99.90;;;3.60;100.00;102275.44;4954437;28;19936;-88
2022/01/25 06:22:22;;;;;;;;;;;5.70;99.90;;;3.55;100.00;102285.66;4955277;28;19926;-86
2022/01/25 06:24:49;;;;;;;;;;;5.70;99.90;;;3.63;100.00;102283.34;4956950;28;19926;-86
2022/01/25 06:27:16;;;;;;;;;;;5.70;99.90;;;3.63;100.00;102278.81;4963524;28;19930;-85
2022/01/25 06:29:44;;;;;;;;;;;5.70;99.90;;;3.63;100.00;102269.88;4959544;28;20134;-86
2022/01/25 06:32:11;;;;;;;;;;;5.70;99.90;;;3.59;100.00;102271.91;4955447;28;19930;-86
2022/01/25 06:34:38;;;;;;;;;;;5.70;99.90;;;3.61;100.00;102267.28;4961392;28;20025;-86
2022/01/25 06:37:05;;;;;;;;;;;5.70;99.90;;;3.63;100.00;102267.19;4954095;28;19929;-86
2022/01/25 06:39:34;;;;;;;;;;;5.60;99.90;;;3.52;100.00;102274.13;4963085;28;19925;-86
2022/01/25 06:42:01;;;;;;;;;;;5.70;99.90;;;3.57;100.00;102264.91;4970051;28;20449;-86
2022/01/25 06:44:28;;;;;;;;;;;5.70;99.90;;;3.55;100.00;102272.19;4969165;28;20002;-84
2022/01/25 06:46:55;;;;;;;;;;;5.70;99.90;;;3.57;100.00;102272.97;4971915;28;19922;-85
2022/01/25 06:49:22;;;;;;;;;;;5.60;99.90;;;3.61;100.00;102274.50;4968194;28;19977;-85
2022/01/25 06:51:50;;;;;;;;;;;5.60;99.90;;;3.67;100.00;102279.50;4955420;28;19926;-86
2022/01/25 06:54:17;;;;;;;;;;;5.60;99.90;;;3.59;100.00;102276.44;4954019;28;20309;-85
2022/01/25 06:56:45;;;;;;;;;;;5.60;99.90;;;3.70;100.00;102282.00;4953658;28;19972;-85
2022/01/25 06:59:12;;;;;;;;;;;5.60;99.90;;;3.56;100.00;102282.00;4955365;28;19931;-85
2022/01/25 07:01:39;;;;;;;;;;;5.60;99.90;;;3.47;100.00;102288.81;4953474;28;19962;-85
2022/01/25 07:04:06;;;;;;;;;;;5.60;99.90;;;3.60;100.00;102279.03;4960323;28;19930;-85
2022/01/25 07:06:33;;;;;;;;;;;5.60;99.90;;;3.53;100.00;102283.91;4960687;28;19930;-85
2022/01/25 07:09:02;;;;;;;;;;;5.60;99.90;;;3.58;100.00;102288.16;4953198;28;19953;-86
2022/01/25 07:11:29;;;;;;;;;;;5.60;99.90;;;3.56;100.00;102290.06;4952037;28;20642;-86
2022/01/25 07:13:58;;;;;;;;;;;5.60;99.90;;;3.63;100.00;102289.59;4953446;28;19930;-85
2022/01/25 07:16:26;;;;;;;;;;;5.60;99.90;;;3.69;100.00;102280.25;4953468;28;19933;-85
2022/01/25 07:18:53;;;;;;;;;;;5.60;99.90;;;3.69;100.00;102288.34;4968148;28;19932;-86
2022/01/25 07:21:20;;;;;;;;;;;5.60;99.90;;;3.67;100.00;102292.97;4971455;28;19962;-85
2022/01/25 07:23:47;;;;;;;;;;;5.60;99.90;;;3.76;100.00;102283.44;4953002;28;19981;-86
2022/01/25 07:26:14;;;;;;;;;;;5.60;99.90;;;3.76;100.00;102278.91;4966904;28;19966;-86
2022/01/25 07:28:41;;;;;;;;;;;5.60;99.90;;;3.82;100.00;102274.97;4952939;28;20458;-86
2022/01/25 07:31:09;;;;;;;;;;;5.50;99.90;;;3.90;100.00;102272.66;4968326;28;20065;-85
2022/01/25 07:33:36;;;;;;;;;;;5.50;99.90;;;3.92;100.00;102270.72;4953129;28;20294;-85
2022/01/25 07:36:05;;;;;;;;;;;5.50;99.90;;;3.77;100.00;102275.28;4958686;28;20024;-85
2022/01/25 07:38:32;;;;;;;;;;;5.50;99.90;;;3.78;100.00;102277.00;4951436;28;19929;-86
2022/01/25 07:40:59;;;;;;;;;;;5.50;99.90;;;3.76;100.00;102278.06;4956286;28;19926;-85
2022/01/25 07:43:26;;;;;;;;;;;5.60;99.90;;;3.74;100.00;102280.84;4952805;28;19926;-85
2022/01/25 07:45:54;;;;;;;;;;;5.60;99.90;;;3.69;100.00;102288.34;4952677;28;19926;-85
2022/01/25 07:48:23;;;;;;;;;;;5.60;99.90;;;3.67;100.00;102290.28;4952632;28;19926;-85
2022/01/25 07:50:50;;;;;;;;;;;5.60;99.90;;;3.68;100.00;102282.09;4954352;28;20434;-86
2022/01/25 07:53:17;;;;;;;;;;;5.60;99.90;;;3.66;100.00;102286.72;4958102;28;19922;-85
2022/01/25 07:55:44;;;;;;;;;;;5.60;99.90;;;3.51;100.00;102290.38;4954265;28;19933;-86
2022/01/25 07:58:11;;;;;;;;;;;5.60;99.90;;;3.54;100.00;102284.78;4952071;28;19926;-85
2022/01/25 08:00:38;;;;;;;;;;;5.60;99.90;;;3.61;100.00;102285.28;4952831;28;19926;-86
2022/01/25 08:03:05;;;;;;;;;;;5.50;99.90;;;3.58;100.00;102286.34;4952489;28;20290;-86
2022/01/25 08:05:34;;;;;;;;;;;5.60;99.90;;;3.64;100.00;102293.16;4952552;28;19981;-86
2022/01/25 08:08:01;;;;;;;;;;;5.60;99.90;;;3.56;100.00;102295.44;4950887;28;20301;-85
2022/01/25 08:10:28;;;;;;;;;;;5.60;99.90;;;3.56;100.00;102290.06;4952048;28;20044;-85
2022/01/25 08:12:56;;;;;;;;;;;5.60;99.90;;;3.66;100.00;102293.94;4952227;28;19926;-85
2022/01/25 08:15:24;;;;;;;;;;;5.60;99.90;;;3.71;100.00;102287.31;4952336;28;20275;-86
2022/01/25 08:17:52;;;;;;;;;;;5.60;99.90;;;3.77;100.00;102291.44;4952386;28;20334;-85
2022/01/25 08:20:19;;;;;;;;;;;5.60;99.90;;;3.74;100.00;102302.38;4951792;28;20017;-86
2022/01/25 08:22:47;;;;;;;;;;;5.60;99.90;;;3.66;100.00;102302.00;4951923;28;19926;-85
2022/01/25 08:25:15;;;;;;;;;;;5.60;99.90;;;3.71;100.00;102297.19;4966904;28;20037;-86
2022/01/25 08:27:42;;;;;;;;;;;5.70;99.90;;;3.52;100.00;102303.75;4952032;28;19961;-86
2022/01/25 08:30:10;;;;;;;;;;;5.70;99.90;;;3.55;100.00;102296.44;4951473;28;19957;-85
2022/01/25 08:32:37;;;;;;;;;;;5.70;99.90;;;3.59;100.00;102303.34;4952050;28;20020;-85
2022/01/25 08:35:05;;;;;;;;;;;5.70;99.90;;;3.50;100.00;102297.59;4951787;28;19961;-85
2022/01/25 08:37:32;;;;;;;;;;;5.70;99.90;;;3.60;100.00;102303.25;4951841;28;19930;-85
2022/01/25 08:40:02;;;;;;;;;;;5.70;99.90;;;3.62;100.00;102298.66;4951425;28;19981;-85
2022/01/25 08:42:29;;;;;;;;;;;5.60;99.90;;;3.66;100.00;102305.56;4951920;28;19958;-85
2022/01/25 08:44:56;;;;;;;;;;;5.60;99.90;;;3.72;100.00;102307.88;4951265;28;19933;-85
2022/01/25 08:47:23;;;;;;;;;;;5.60;99.90;;;3.74;100.00;102309.63;4984766;28;20338;-86
2022/01/25 08:49:50;;;;;;;;;;;5.60;99.90;;;3.64;100.00;102301.25;4949832;28;20024;-85
2022/01/25 08:52:17;;;;;;;;;;;5.60;99.90;;;3.66;100.00;102299.31;4956074;28;20371;-86
2022/01/25 08:54:44;;;;;;;;;;;5.60;99.90;;;3.51;100.00;102307.38;4951560;28;20013;-86
2022/01/25 08:57:13;;;;;;;;;;;5.70;99.90;;;3.45;100.00;102302.38;4951427;28;19966;-86
2022/01/25 08:59:40;;;;;;;;;;;5.70;99.90;;;3.52;100.00;102308.22;4951323;28;19926;-86
2022/01/25 09:02:07;;;;;;;;;;;5.70;99.90;;;3.60;100.00;102307.75;4951033;28;19957;-86
2022/01/25 09:04:34;;;;;;;;;;;5.70;99.90;;;3.73;100.00;102308.72;4951651;28;19976;-85
2022/01/25 09:07:01;;;;;;;;;;;5.70;99.90;;;3.71;100.00;102314.22;4951268;28;19966;-85
2022/01/25 09:09:28;;;;;;;;;;;5.70;99.90;;;3.54;100.00;102309.00;4949919;28;20264;-86
2022/01/25 09:11:56;;;;;;;;;;;5.70;99.90;;;3.56;100.00;102314.28;4951507;28;19933;-86
2022/01/25 09:14:25;;;;;;;;;;;5.70;99.90;;;3.60;100.00;102311.34;4951471;28;20473;-85
2022/01/25 09:16:52;;;;;;;;;;;5.60;99.90;;;3.56;100.00;102308.91;4966232;28;20420;-86
2022/01/25 09:19:19;;;;;;;;;;;5.70;99.90;;;3.61;100.00;102320.28;4950852;28;19930;-86
2022/01/25 09:21:46;;;;;;;;;;;5.70;99.90;;;3.66;100.00;102315.47;4951291;28;20042;-86
2022/01/25 09:24:13;;;;;;;;;;;5.70;99.90;;;3.62;100.00;102325.56;4951228;28;19922;-86
2022/01/25 09:26:40;;;;;;;;;;;5.70;99.90;;;3.59;100.00;102324.88;4951402;28;20377;-85
2022/01/25 09:29:08;;;;;;;;;;;5.70;99.90;;;3.68;100.00;102325.19;4950920;28;19961;-85
2022/01/25 09:31:36;;;;;;;;;;;5.70;99.90;;;3.73;100.00;102332.97;4951139;28;19973;-86
2022/01/25 09:34:03;;;;;;;;;;;5.70;99.90;;;3.82;100.00;102331.53;4951195;28;19926;-85
2022/01/25 09:36:30;;;;;;;;;;;5.70;99.90;;;3.86;100.00;102335.75;4966852;28;19932;-85
2022/01/25 09:38:58;;;;;;;;;;;5.70;99.90;;;3.87;100.00;102335.66;4974325;28;19976;-85
2022/01/25 09:41:25;;;;;;;;;;;5.70;99.90;;;3.67;100.00;102339.59;4959081;28;20371;-85
2022/01/25 09:43:52;;;;;;;;;;;5.70;99.90;;;3.80;100.00;102331.63;4955183;28;19956;-85
2022/01/25 09:46:20;;;;;;;;;;;5.70;99.90;;;3.69;100.00;102320.66;4954801;29;19933;-84
2022/01/25 09:48:48;;;;;;;;;;;5.70;99.90;;;3.82;100.00;102315.38;4960406;28;19937;-84
2022/01/25 09:51:18;;;;;;;;;;;5.70;99.90;;;3.83;100.00;102322.50;4974208;28;19957;-85
2022/01/25 09:53:45;;;;;;;;;;;5.70;99.90;;;3.81;100.00;102327.97;4974197;28;20028;-86
2022/01/25 09:56:13;;;;;;;;;;;5.80;99.90;;;3.83;100.00;102328.75;4974075;28;19937;-85
2022/01/25 09:58:42;;;;;;;;;;;5.80;99.90;;;3.84;99.54;102327.78;4973634;28;19926;-86
2022/01/25 10:01:09;;;;;;;;;;;5.80;99.90;;;3.85;99.42;102334.91;4973842;28;19922;-86
2022/01/25 10:03:38;;;;;;;;;;;5.80;99.90;;;3.91;99.84;102339.91;4970291;28;19933;-86
2022/01/25 10:06:13;;;;;;;;;;;5.80;99.90;;;3.94;99.84;102335.28;4970492;28;19926;-86
2022/01/25 10:08:40;;;;;;;;;;;5.80;99.90;;;3.97;100.00;102338.66;4964165;28;19933;-86
2022/01/25 10:11:09;;;;;;;;;;;5.80;99.90;;;4.00;99.52;102348.34;4954483;28;19934;-86
2022/01/25 10:13:38;;;;;;;;;;;5.80;99.90;;;4.02;99.65;102347.31;4964529;28;19930;-87
2022/01/25 10:16:07;;;;;;;;;;;5.80;99.90;;;4.10;99.88;102349.53;4973843;28;19956;-86
2022/01/25 10:18:53;;;;;;;;;;;5.80;99.90;;;4.15;99.98;102350.09;4979361;28;20283;-87
2022/01/25 10:21:24;;;;;;;;;;;5.80;99.90;;;4.06;98.39;102353.38;4954765;28;19934;-86
2022/01/25 10:24:06;;;;;;;;;;;5.80;99.90;;;4.00;99.90;102345.66;4954313;29;19966;-87
2022/01/25 10:26:35;;;;;;;;;;;5.80;99.90;;;4.01;99.42;102342.88;4970738;28;19976;-86
2022/01/25 10:29:03;;;;;;;;;;;5.80;99.90;;;3.97;100.00;102348.56;4969398;28;20012;-86
2022/01/25 10:31:36;;;;;;;;;;;5.80;99.90;;;3.86;98.62;102350.09;4954147;28;20317;-86
2022/01/25 10:34:04;;;;;;;;;;;5.90;99.90;;;3.93;99.25;102350.59;4954118;28;20387;-86
2022/01/25 10:36:32;;;;;;;;;;;5.90;99.90;;;3.98;99.41;102348.47;4958289;28;19927;-85
2022/01/25 10:38:59;;;;;;;;;;;5.80;99.90;;;3.90;98.50;102346.25;4980261;28;19930;-86
2022/01/25 10:41:28;;;;;;;;;;;5.90;99.90;;;3.91;99.38;102350.69;4954180;28;19953;-86
2022/01/25 10:43:56;;;;;;;;;;;5.90;99.90;;;3.94;99.36;102338.88;4954050;28;20000;-87
2022/01/25 10:46:26;;;;;;;;;;;5.90;99.90;;;3.97;98.90;102346.72;4959025;28;19921;-86
2022/01/25 10:48:57;;;;;;;;;;;5.90;99.90;;;3.94;99.81;102340.66;4972986;28;19922;-86
2022/01/25 10:51:26;;;;;;;;;;;5.90;99.90;;;4.05;100.00;102343.56;4971839;28;20041;-87
2022/01/25 10:54:16;;;;;;;;;;;5.90;99.90;;;4.14;100.00;102342.97;4965905;28;19977;-86
2022/01/25 10:56:46;;;;;;;;;;;5.90;99.90;;;4.14;98.69;102336.72;4957749;28;19953;-86
2022/01/25 10:59:16;;;;;;;;;;;5.90;99.90;;;4.10;98.67;102341.44;4971490;28;19944;-86
2022/01/25 11:01:48;;;;;;;;;;;5.90;99.90;;;4.07;98.51;102336.22;4988013;28;19977;-87
2022/01/25 11:04:17;;;;;;;;;;;5.90;99.90;;;4.12;99.31;102334.13;4973046;28;20009;-86
2022/01/25 11:06:45;;;;;;;;;;;5.90;99.90;;;4.11;98.28;102335.06;4971304;28;19973;-86
2022/01/25 11:09:16;;;;;;;;;;;6.00;99.90;;;3.98;98.38;102344.91;4957256;28;20410;-85
2022/01/25 11:11:48;;;;;;;;;;;5.90;99.90;;;4.07;99.60;102333.53;4958408;28;19930;-86
2022/01/25 11:17:01;;;;;;;;;;;5.90;99.90;;;3.89;99.53;102332.88;4953621;28;19973;-86
2022/01/25 11:19:29;;;;;;;;;;;5.90;99.90;;;3.88;100.00;102337.41;4952741;28;20632;-85
2022/01/25 11:21:58;;;;;;;;;;;6.00;99.90;;;3.95;100.00;102331.63;4996717;23;19934;-85
2022/01/25 11:24:31;;;;;;;;;;;5.90;99.90;;;4.00;100.00;102333.09;4992146;28;20306;-85
2022/01/25 11:27:01;;;;;;;;;;;5.90;99.90;;;4.15;100.00;102328.56;4990810;28;19926;-86
2022/01/25 11:29:29;;;;;;;;;;;5.90;99.90;;;4.19;100.00;102330.09;4991853;28;19953;-85
2022/01/25 11:32:03;;;;;;;;;;;5.90;99.90;;;4.19;98.86;102326.50;4975834;28;19985;-85
2022/01/25 11:34:31;;;;;;;;;;;5.90;99.90;;;4.20;99.43;102326.41;4971429;28;19922;-85
2022/01/25 11:37:01;;;;;;;;;;;6.00;99.90;;;4.24;98.96;102329.78;4972219;28;19957;-86
2022/01/25 11:39:30;;;;;;;;;;;6.00;99.90;;;4.17;98.49;102328.44;4969030;28;20371;-86
2022/01/25 11:42:03;;;;;;;;;;;6.00;99.90;;;4.17;98.05;102317.66;4972030;28;19926;-86
2022/01/25 11:44:31;;;;;;;;;;;6.00;99.90;;;4.14;97.93;102321.41;4972341;28;19928;-85
2022/01/25 11:47:06;;;;;;;;;;;6.00;99.90;;;4.18;98.41;102322.09;4970399;28;20313;-86
2022/01/25 11:49:33;;;;;;;;;;;6.00;99.90;;;4.10;97.75;102319.88;4965637;28;19930;-86
2022/01/25 11:52:11;;;;;;;;;;;6.00;99.90;;;3.98;97.88;102323.34;4952724;28;19922;-85
2022/01/25 11:54:41;;;;;;;;;;;6.00;99.90;;;4.07;99.01;102328.16;4952915;28;19926;-86
2022/01/25 11:57:13;;;;;;;;;;;6.00;99.90;;;4.15;98.76;102327.66;4951014;28;20332;-87
2022/01/25 11:59:41;;;;;;;;;;;6.00;99.90;;;4.16;98.21;102319.50;4952538;28;20367;-85
2022/01/25 12:02:08;;;;;;;;;;;6.00;99.90;;;4.14;98.61;102316.03;4952753;28;20001;-86
2022/01/25 12:04:35;;;;;;;;;;;6.00;99.90;;;4.09;99.78;102310.06;4952740;28;19922;-86
2022/01/25 12:07:12;;;;;;;;;;;6.10;99.90;;;4.11;99.35;102310.81;4952410;28;19925;-86
2022/01/25 12:09:45;;;;;;;;;;;6.10;99.90;;;4.15;97.81;102315.09;4951997;28;19945;-86
2022/01/25 12:12:13;;;;;;;;;;;6.10;99.90;;;4.18;97.82;102316.69;4952208;28;20028;-86
2022/01/25 12:14:45;;;;;;;;;;;6.00;99.90;;;4.18;97.81;102311.31;4952101;28;19972;-86
2022/01/25 12:17:15;;;;;;;;;;;6.00;99.90;;;4.18;97.97;102306.78;4952228;29;19932;-86
2022/01/25 12:19:47;;;;;;;;;;;6.00;99.90;;;4.23;98.36;102303.81;4950411;29;19927;-86
2022/01/25 12:22:29;;;;;;;;;;;6.00;99.90;;;4.28;98.01;102302.53;4952017;28;19922;-86
2022/01/25 12:25:05;;;;;;;;;;;6.00;99.90;;;4.31;98.02;102302.31;4959909;28;19981;-86
2022/01/25 12:27:50;;;;;;;;;;;6.10;99.90;;;4.31;97.32;102302.31;4971319;28;20016;-86
2022/01/25 12:30:38;;;;;;;;;;;6.10;99.90;;;4.32;97.80;102300.50;4970910;28;19926;-86
2022/01/25 12:33:08;;;;;;;;;;;6.10;99.90;;;4.35;98.39;102296.75;4971337;28;20462;-86
2022/01/25 12:35:40;;;;;;;;;;;6.10;99.90;;;4.29;97.95;102296.16;4971337;28;19922;-86
2022/01/25 12:38:13;;;;;;;;;;;6.10;99.90;;;4.34;98.21;102295.00;4971054;28;19933;-85
2022/01/25 12:40:59;;;;;;;;;;;6.10;99.90;;;4.36;97.57;102293.06;4963343;28;19965;-86